createdAt,value
2022-10-17T00:01:10.955Z,13.77
2022-10-17T00:03:39.543Z,13.75
2022-10-17T00:06:08.664Z,13.84
2022-10-17T00:08:37.103Z,13.76
2022-10-17T00:11:07.221Z,13.80
2022-10-17T00:13:35.300Z,13.83
2022-10-17T00:16:04.662Z,13.93
2022-10-17T00:18:32.230Z,13.98
2022-10-17T00:20:59.815Z,13.94
2022-10-17T00:23:30.164Z,13.92
2022-10-17T00:26:01.468Z,13.84
2022-10-17T00:28:29.253Z,13.83
2022-10-17T00:30:57.759Z,13.80
2022-10-17T00:33:26.797Z,13.82
2022-10-17T00:36:03.712Z,13.70
2022-10-17T00:38:31.242Z,13.66
2022-10-17T00:40:58.965Z,13.61
2022-10-17T00:43:26.701Z,13.56
2022-10-17T00:45:54.235Z,13.56
2022-10-17T00:48:23.418Z,13.53
2022-10-17T00:50:52.530Z,13.51
2022-10-17T00:53:20.362Z,13.51
2022-10-17T00:55:50.855Z,13.64
2022-10-17T00:58:19.251Z,13.52
2022-10-17T01:00:48.216Z,13.39
2022-10-17T01:03:15.786Z,13.42
2022-10-17T01:05:43.868Z,13.42
2022-10-17T01:08:13.563Z,13.38
2022-10-17T01:10:48.860Z,13.40
2022-10-17T01:13:24.469Z,13.40
2022-10-17T01:15:59.431Z,13.39
2022-10-17T01:18:43.755Z,13.41
2022-10-17T01:21:26.609Z,13.37
2022-10-17T01:24:24.218Z,13.37
2022-10-17T01:27:09.556Z,13.38
2022-10-17T01:29:54.214Z,13.41
2022-10-17T01:32:25.500Z,13.37
2022-10-17T01:34:56.406Z,13.40
2022-10-17T01:37:29.492Z,13.36
2022-10-17T01:40:01.884Z,13.33
2022-10-17T01:42:34.688Z,13.32
2022-10-17T01:45:05.354Z,13.27
2022-10-17T01:47:35.042Z,13.17
2022-10-17T01:50:06.497Z,13.22
2022-10-17T01:52:36.584Z,13.42
2022-10-17T01:55:06.671Z,13.44
2022-10-17T01:57:37.316Z,13.48
2022-10-17T02:00:06.815Z,13.31
2022-10-17T02:02:36.059Z,13.22
2022-10-17T02:05:04.823Z,13.22
2022-10-17T02:07:32.379Z,13.11
2022-10-17T02:10:00.028Z,13.00
2022-10-17T02:12:46.706Z,13.08
2022-10-17T02:15:25.363Z,13.15
2022-10-17T02:17:59.272Z,13.21
2022-10-17T02:20:29.723Z,13.17
2022-10-17T02:22:59.676Z,13.21
2022-10-17T02:25:35.381Z,13.14
2022-10-17T02:28:10.643Z,13.24
2022-10-17T02:30:40.974Z,13.17
2022-10-17T02:33:12.748Z,13.12
2022-10-17T02:35:43.122Z,13.01
2022-10-17T02:38:12.302Z,12.85
2022-10-17T02:40:40.542Z,12.90
2022-10-17T02:43:08.828Z,12.84
2022-10-17T02:45:38.317Z,12.80
2022-10-17T02:48:07.240Z,12.82
2022-10-17T02:50:43.392Z,12.86
2022-10-17T02:53:15.347Z,13.00
2022-10-17T02:55:48.534Z,12.89
2022-10-17T02:58:20.618Z,12.88
2022-10-17T03:00:48.777Z,12.88
2022-10-17T03:03:20.927Z,12.78
2022-10-17T03:05:49.838Z,12.77
2022-10-17T03:08:17.641Z,12.93
2022-10-17T03:10:45.264Z,12.85
2022-10-17T03:13:12.834Z,12.88
2022-10-17T03:15:40.368Z,12.83
2022-10-17T03:18:07.948Z,12.84
2022-10-17T03:20:35.625Z,12.75
2022-10-17T03:23:04.633Z,12.76
2022-10-17T03:25:32.238Z,12.87
2022-10-17T03:28:01.465Z,13.05
2022-10-17T03:30:29.304Z,12.92
2022-10-17T03:32:58.363Z,12.87
2022-10-17T03:35:26.073Z,13.00
2022-10-17T03:37:53.755Z,13.00
2022-10-17T03:40:22.582Z,12.86
2022-10-17T03:42:50.178Z,12.82
2022-10-17T03:45:17.774Z,12.76
2022-10-17T03:47:45.346Z,12.93
2022-10-17T03:50:12.988Z,12.98
2022-10-17T03:52:40.620Z,13.01
2022-10-17T03:55:08.971Z,12.97
2022-10-17T03:57:40.189Z,12.88
2022-10-17T04:00:11.185Z,12.82
2022-10-17T04:02:38.777Z,12.74
2022-10-17T04:05:07.402Z,12.70
2022-10-17T04:07:37.171Z,12.70
2022-10-17T04:10:05.557Z,12.77
2022-10-17T04:12:33.089Z,12.74
2022-10-17T04:15:01.997Z,12.77
2022-10-17T04:17:35.806Z,12.80
2022-10-17T04:20:06.444Z,12.86
2022-10-17T04:22:34.018Z,12.77
2022-10-17T04:25:01.778Z,12.71
2022-10-17T04:27:29.340Z,12.68
2022-10-17T04:29:56.889Z,12.70
2022-10-17T04:32:26.619Z,12.70
2022-10-17T04:34:54.283Z,12.76
2022-10-17T04:37:21.797Z,12.88
2022-10-17T04:39:49.481Z,12.71
2022-10-17T04:42:17.061Z,12.58
2022-10-17T04:44:44.581Z,12.52
2022-10-17T04:47:12.098Z,12.44
2022-10-17T04:52:13.548Z,12.40
2022-10-17T04:54:41.092Z,12.46
2022-10-17T04:57:08.658Z,12.44
2022-10-17T04:59:36.212Z,12.43
2022-10-17T05:02:03.772Z,12.33
2022-10-17T05:04:31.376Z,12.28
2022-10-17T05:07:00.391Z,12.27
2022-10-17T05:09:28.278Z,12.18
2022-10-17T05:11:55.857Z,12.26
2022-10-17T05:14:23.382Z,12.50
2022-10-17T05:16:51.023Z,12.52
2022-10-17T05:19:18.981Z,12.52
2022-10-17T05:21:46.581Z,12.52
2022-10-17T05:24:16.292Z,12.38
2022-10-17T05:26:43.987Z,12.28
2022-10-17T05:29:11.627Z,12.26
2022-10-17T05:31:39.203Z,12.23
2022-10-17T05:34:09.045Z,12.22
2022-10-17T05:36:39.103Z,12.21
2022-10-17T05:39:06.707Z,12.25
2022-10-17T05:41:35.820Z,12.26
2022-10-17T05:44:05.510Z,12.27
2022-10-17T05:46:33.609Z,12.26
2022-10-17T05:49:01.167Z,12.23
2022-10-17T05:51:28.824Z,12.20
2022-10-17T05:53:56.488Z,12.25
2022-10-17T05:56:24.087Z,12.36
2022-10-17T05:58:56.245Z,12.39
2022-10-17T06:01:26.292Z,12.45
2022-10-17T06:03:53.883Z,12.49
2022-10-17T06:06:22.234Z,12.55
2022-10-17T06:08:49.936Z,12.57
2022-10-17T06:11:17.494Z,12.67
2022-10-17T06:13:45.159Z,12.75
2022-10-17T06:16:14.289Z,12.72
2022-10-17T06:18:41.887Z,12.68
2022-10-17T06:21:11.735Z,12.73
2022-10-17T06:23:39.325Z,12.80
2022-10-17T06:26:07.631Z,12.97
2022-10-17T06:28:35.720Z,12.98
2022-10-17T06:31:06.503Z,13.00
2022-10-17T06:33:35.477Z,13.06
2022-10-17T06:36:03.598Z,13.00
2022-10-17T06:38:31.436Z,13.09
2022-10-17T06:41:04.908Z,13.09
2022-10-17T06:43:32.495Z,13.13
2022-10-17T06:46:00.220Z,13.09
2022-10-17T06:48:27.937Z,13.20
2022-10-17T06:50:59.802Z,13.22
2022-10-17T06:53:28.600Z,13.20
2022-10-17T06:56:01.165Z,13.32
2022-10-17T06:58:29.060Z,13.46
2022-10-17T07:01:00.930Z,13.60
2022-10-17T07:03:29.433Z,13.61
2022-10-17T07:05:58.759Z,13.65
2022-10-17T07:08:26.790Z,13.75
2022-10-17T07:10:54.839Z,13.87
2022-10-17T07:13:23.035Z,13.96
2022-10-17T07:15:50.750Z,14.09
2022-10-17T07:18:18.343Z,14.18
2022-10-17T07:20:53.891Z,14.26
2022-10-17T07:23:22.968Z,14.38
2022-10-17T07:25:50.614Z,14.48
2022-10-17T07:28:18.336Z,14.59
2022-10-17T07:30:49.469Z,14.72
2022-10-17T07:33:19.690Z,14.88
2022-10-17T07:35:47.497Z,15.02
2022-10-17T07:38:15.150Z,15.05
2022-10-17T07:40:44.155Z,15.17
2022-10-17T07:43:11.720Z,15.27
2022-10-17T07:45:39.380Z,15.34
2022-10-17T07:48:07.083Z,15.40
2022-10-17T07:50:34.717Z,15.48
2022-10-17T07:53:02.269Z,15.56
2022-10-17T07:55:29.824Z,15.57
2022-10-17T07:58:00.398Z,15.57
2022-10-17T08:00:28.351Z,15.61
2022-10-17T08:02:55.896Z,15.76
2022-10-17T08:05:23.556Z,15.85
2022-10-17T08:07:51.140Z,15.95
2022-10-17T08:10:19.184Z,16.00
2022-10-17T08:12:46.760Z,16.03
2022-10-17T08:15:15.628Z,16.18
2022-10-17T08:17:43.240Z,16.27
2022-10-17T08:20:12.021Z,16.39
2022-10-17T08:22:39.621Z,16.45
2022-10-17T08:25:08.304Z,16.54
2022-10-17T08:27:36.104Z,16.61
2022-10-17T08:30:03.948Z,16.63
2022-10-17T08:32:33.062Z,16.70
2022-10-17T08:35:01.145Z,16.73
2022-10-17T08:37:30.353Z,16.83
2022-10-17T08:39:58.205Z,16.91
2022-10-17T08:42:35.396Z,17.02
2022-10-17T08:45:12.141Z,17.13
2022-10-17T08:47:42.553Z,17.31
2022-10-17T08:50:14.052Z,17.48
2022-10-17T08:52:44.305Z,17.59
2022-10-17T08:55:16.259Z,17.67
2022-10-17T08:57:44.069Z,17.82
2022-10-17T09:00:16.654Z,17.98
2022-10-17T09:02:54.240Z,18.02
2022-10-17T09:05:42.115Z,18.23
2022-10-17T09:08:18.752Z,18.29
2022-10-17T09:10:53.793Z,18.45
2022-10-17T09:13:30.910Z,18.60
2022-10-17T09:16:12.457Z,18.64
2022-10-17T09:18:42.433Z,18.69
2022-10-17T09:21:19.242Z,18.66
2022-10-17T09:23:51.282Z,18.69
2022-10-17T09:26:20.819Z,18.89
2022-10-17T09:28:53.809Z,18.93
2022-10-17T09:31:26.717Z,19.02
2022-10-17T09:33:57.001Z,19.00
2022-10-17T09:36:27.584Z,19.11
2022-10-17T09:38:57.686Z,19.13
2022-10-17T09:41:44.999Z,19.29
2022-10-17T09:44:17.868Z,19.44
2022-10-17T09:46:56.700Z,19.48
2022-10-17T09:49:29.729Z,19.67
2022-10-17T09:51:57.328Z,19.68
2022-10-17T09:54:27.167Z,19.82
2022-10-17T09:56:59.512Z,19.85
2022-10-17T09:59:32.446Z,19.87
2022-10-17T10:02:09.501Z,19.91
2022-10-17T10:04:59.647Z,19.97
2022-10-17T10:07:29.245Z,19.96
2022-10-17T10:09:57.794Z,20.04
2022-10-17T10:12:27.466Z,20.13
2022-10-17T10:14:55.580Z,20.25
2022-10-17T10:17:35.576Z,20.42
2022-10-17T10:20:26.506Z,20.51
2022-10-17T10:23:08.377Z,20.74
2022-10-17T10:25:36.674Z,20.93
2022-10-17T10:28:11.113Z,20.87
2022-10-17T10:30:39.953Z,21.01
2022-10-17T10:33:11.550Z,21.16
2022-10-17T10:35:40.772Z,21.10
2022-10-17T10:38:14.656Z,21.21
2022-10-17T10:40:47.489Z,21.34
2022-10-17T10:43:23.628Z,21.42
2022-10-17T10:45:52.416Z,21.49
2022-10-17T10:48:23.145Z,21.70
2022-10-17T10:50:55.111Z,21.58
2022-10-17T10:53:40.185Z,21.60
2022-10-17T10:56:12.815Z,21.74
2022-10-17T10:58:50.892Z,21.95
2022-10-17T11:01:28.470Z,21.57
2022-10-17T11:04:14.879Z,21.84
2022-10-17T11:06:46.062Z,21.91
2022-10-17T11:09:19.413Z,21.99
2022-10-17T11:11:51.172Z,21.99
2022-10-17T11:14:22.158Z,22.11
2022-10-17T11:16:55.013Z,22.18
2022-10-17T11:19:29.748Z,22.24
2022-10-17T11:22:06.875Z,22.25
2022-10-17T11:24:38.423Z,22.28
2022-10-17T11:27:07.370Z,22.39
2022-10-17T11:29:36.507Z,22.61
2022-10-17T11:32:08.119Z,22.53
2022-10-17T11:34:38.293Z,22.51
2022-10-17T11:37:13.331Z,22.46
2022-10-17T11:42:16.727Z,22.55
2022-10-17T11:44:44.599Z,22.60
2022-10-17T11:47:15.509Z,22.82
2022-10-17T11:49:49.973Z,22.84
2022-10-17T11:52:44.299Z,22.86
2022-10-17T11:55:20.323Z,22.90
2022-10-17T11:57:56.077Z,23.05
2022-10-17T12:00:31.383Z,23.14
2022-10-17T12:03:08.545Z,22.99
2022-10-17T12:05:42.339Z,23.12
2022-10-17T12:08:18.092Z,23.22
2022-10-17T12:10:50.869Z,22.91
2022-10-17T12:13:48.338Z,22.75
2022-10-17T12:16:46.648Z,22.84
2022-10-17T12:19:38.558Z,22.84
2022-10-17T12:22:23.338Z,22.67
2022-10-17T12:24:57.758Z,22.73
2022-10-17T12:27:34.445Z,22.56
2022-10-17T12:30:02.895Z,22.40
2022-10-17T12:32:46.973Z,22.31
2022-10-17T12:35:22.978Z,22.21
2022-10-17T12:38:28.164Z,22.35
2022-10-17T12:41:07.607Z,22.38
2022-10-17T12:43:42.643Z,22.65
2022-10-17T12:46:12.393Z,22.78
2022-10-17T12:49:05.686Z,22.71
2022-10-17T12:52:06.713Z,22.86
2022-10-17T12:54:47.641Z,22.92
2022-10-17T12:57:26.762Z,23.03
2022-10-17T12:59:57.971Z,23.10
2022-10-17T13:02:28.923Z,23.14
2022-10-17T13:05:08.855Z,23.23
2022-10-17T13:07:37.133Z,23.37
2022-10-17T13:10:05.944Z,23.21
2022-10-17T13:12:41.105Z,23.27
2022-10-17T13:15:12.612Z,23.35
2022-10-17T13:17:43.064Z,23.37
2022-10-17T13:20:25.546Z,23.37
2022-10-17T13:22:57.706Z,23.35
2022-10-17T13:25:28.203Z,23.33
2022-10-17T13:28:14.459Z,23.28
2022-10-17T13:30:49.626Z,23.31
2022-10-17T13:33:31.791Z,23.33
2022-10-17T13:36:00.816Z,23.23
2022-10-17T13:38:32.309Z,23.09
2022-10-17T13:41:16.590Z,23.20
2022-10-17T13:43:49.611Z,23.26
2022-10-17T13:46:37.813Z,23.18
2022-10-17T13:49:23.182Z,23.30
2022-10-17T13:51:54.896Z,23.07
2022-10-17T13:54:40.121Z,23.04
2022-10-17T13:57:19.105Z,22.98
2022-10-17T13:59:50.770Z,22.87
2022-10-17T14:02:21.301Z,22.80
2022-10-17T14:05:15.780Z,22.84
2022-10-17T14:08:09.523Z,22.79
2022-10-17T14:10:31.157Z,22.92
2022-10-17T14:12:59.267Z,22.79
2022-10-17T14:15:30.016Z,22.84
2022-10-17T14:18:00.839Z,22.79
2022-10-17T14:23:34.372Z,22.71
2022-10-17T14:26:10.384Z,22.88
2022-10-17T14:28:39.714Z,22.62
2022-10-17T14:31:15.038Z,22.48
2022-10-17T14:33:49.672Z,22.35
2022-10-17T14:36:18.536Z,22.35
2022-10-17T14:38:47.608Z,22.29
2022-10-17T14:44:07.983Z,22.08
2022-10-17T14:46:38.840Z,22.14
2022-10-17T14:49:08.069Z,22.16
2022-10-17T14:51:50.220Z,22.24
2022-10-17T14:54:26.959Z,22.24
2022-10-17T14:56:55.923Z,22.26
2022-10-17T14:59:52.064Z,22.35
2022-10-17T15:02:14.547Z,22.21
2022-10-17T15:04:42.244Z,22.07
2022-10-17T15:07:13.560Z,22.01
2022-10-17T15:09:41.652Z,21.93
2022-10-17T15:12:15.008Z,21.93
2022-10-17T15:14:43.301Z,21.90
2022-10-17T15:17:20.724Z,21.81
2022-10-17T15:19:49.104Z,21.67
2022-10-17T15:22:19.242Z,21.59
2022-10-17T15:24:47.489Z,21.54
2022-10-17T15:27:17.423Z,21.42
2022-10-17T15:29:45.717Z,21.33
2022-10-17T15:32:15.377Z,21.19
2022-10-17T15:34:43.694Z,21.09
2022-10-17T15:37:20.854Z,21.01
2022-10-17T15:39:53.404Z,20.95
2022-10-17T15:42:23.412Z,20.85
2022-10-17T15:44:51.078Z,20.78
2022-10-17T15:47:25.407Z,20.63
2022-10-17T15:49:53.422Z,20.57
2022-10-17T15:52:21.407Z,20.42
2022-10-17T15:54:48.996Z,20.37
2022-10-17T15:57:19.889Z,20.23
2022-10-17T15:59:47.954Z,20.12
2022-10-17T16:02:16.432Z,20.07
2022-10-17T16:04:47.783Z,19.95
2022-10-17T16:07:15.662Z,20.00
2022-10-17T16:09:43.701Z,19.86
2022-10-17T16:12:14.594Z,19.79
2022-10-17T16:14:42.493Z,19.76
2022-10-17T16:17:12.104Z,19.70
2022-10-17T16:19:40.115Z,19.68
2022-10-17T16:22:19.073Z,19.63
2022-10-17T16:24:47.285Z,19.65
2022-10-17T16:27:15.530Z,19.67
2022-10-17T16:29:43.793Z,19.68
2022-10-17T16:32:12.100Z,19.62
2022-10-17T16:34:40.326Z,19.61
2022-10-17T16:37:10.225Z,19.74
2022-10-17T16:39:38.389Z,19.77
2022-10-17T16:42:06.557Z,19.75
2022-10-17T16:44:34.446Z,19.71
2022-10-17T16:47:05.509Z,19.69
2022-10-17T16:49:33.726Z,19.65
2022-10-17T16:52:02.037Z,19.64
2022-10-17T16:54:31.782Z,19.60
2022-10-17T16:57:03.356Z,19.60
2022-10-17T16:59:35.340Z,19.57
2022-10-17T17:02:03.745Z,19.55
2022-10-17T17:04:32.205Z,19.48
2022-10-17T17:07:00.456Z,19.44
2022-10-17T17:09:28.713Z,19.44
2022-10-17T17:11:58.598Z,19.35
2022-10-17T17:14:26.896Z,19.31
2022-10-17T17:17:02.343Z,19.24
2022-10-17T17:19:32.803Z,19.09
2022-10-17T17:22:01.428Z,19.03
2022-10-17T17:24:29.364Z,18.98
2022-10-17T17:26:58.354Z,19.00
2022-10-17T17:29:26.176Z,18.91
2022-10-17T17:31:53.964Z,18.91
2022-10-17T17:34:22.077Z,18.79
2022-10-17T17:36:49.700Z,18.80
2022-10-17T17:39:17.533Z,18.75
2022-10-17T17:41:48.550Z,18.65
2022-10-17T17:44:17.435Z,18.58
2022-10-17T17:46:45.631Z,18.57
2022-10-17T17:49:13.485Z,18.51
2022-10-17T17:51:41.797Z,18.55
2022-10-17T17:54:11.419Z,18.56
2022-10-17T17:56:39.539Z,18.59
2022-10-17T17:59:07.252Z,18.64
2022-10-17T18:01:39.252Z,18.61
2022-10-17T18:04:09.139Z,18.69
2022-10-17T18:06:38.151Z,18.69
2022-10-17T18:09:07.314Z,18.69
2022-10-17T18:11:35.882Z,18.74
2022-10-17T18:14:06.348Z,18.68
2022-10-17T18:16:37.194Z,18.64
2022-10-17T18:19:07.111Z,18.58
2022-10-17T18:21:35.428Z,18.52
2022-10-17T18:24:04.624Z,18.52
2022-10-17T18:26:32.328Z,18.45
2022-10-17T18:29:00.260Z,18.43
2022-10-17T18:31:32.046Z,18.34
2022-10-17T18:34:01.335Z,18.32
2022-10-17T18:36:30.365Z,18.22
2022-10-17T18:38:58.511Z,18.22
2022-10-17T18:41:27.261Z,18.26
2022-10-17T18:43:56.286Z,18.21
2022-10-17T18:46:25.485Z,18.24
2022-10-17T18:48:53.789Z,18.20
2022-10-17T18:51:24.837Z,18.19
2022-10-17T18:53:54.064Z,18.15
2022-10-17T18:56:22.631Z,18.06
2022-10-17T18:58:50.425Z,18.14
2022-10-17T19:01:19.809Z,18.11
2022-10-17T19:03:48.963Z,18.14
2022-10-17T19:06:20.451Z,18.15
2022-10-17T19:08:49.982Z,18.17
2022-10-17T19:11:19.125Z,18.17
2022-10-17T19:13:47.798Z,18.19
2022-10-17T19:16:17.312Z,18.16
2022-10-17T19:18:49.585Z,18.19
2022-10-17T19:21:21.668Z,18.10
2022-10-17T19:23:53.060Z,18.02
2022-10-17T19:26:21.668Z,17.98
2022-10-17T19:28:52.106Z,17.98
2022-10-17T19:31:25.411Z,18.03
2022-10-17T19:33:54.371Z,17.95
2022-10-17T19:36:23.586Z,17.98
2022-10-17T19:38:55.379Z,18.00
2022-10-17T19:41:23.589Z,18.05
2022-10-17T19:43:51.520Z,18.06
2022-10-17T19:46:21.009Z,18.02
2022-10-17T19:48:49.717Z,18.06
2022-10-17T19:51:18.588Z,18.04
2022-10-17T19:53:46.738Z,18.05
2022-10-17T19:56:18.496Z,18.10
2022-10-17T19:58:46.583Z,18.08
2022-10-17T20:01:15.814Z,18.08
2022-10-17T20:03:43.687Z,18.04
2022-10-17T20:06:11.645Z,18.02
2022-10-17T20:08:39.841Z,18.02
2022-10-17T20:11:09.475Z,18.00
2022-10-17T20:13:38.955Z,17.98
2022-10-17T20:16:08.200Z,18.03
2022-10-17T20:18:36.235Z,18.02
2022-10-17T20:21:14.535Z,18.03
2022-10-17T20:23:43.452Z,17.98
2022-10-17T20:26:26.026Z,17.89
2022-10-17T20:29:04.528Z,17.86
2022-10-17T20:31:32.298Z,17.85
2022-10-17T20:34:00.765Z,17.92
2022-10-17T20:36:28.671Z,17.91
2022-10-17T20:38:56.572Z,17.90
2022-10-17T20:41:24.858Z,17.89
2022-10-17T20:43:53.437Z,17.89
2022-10-17T20:46:36.368Z,17.84
2022-10-17T20:49:05.240Z,17.82
2022-10-17T20:51:33.046Z,17.84
2022-10-17T20:54:00.806Z,17.86
2022-10-17T20:56:29.846Z,17.90
2022-10-17T20:58:58.930Z,17.97
2022-10-17T21:01:29.154Z,17.98
2022-10-17T21:03:59.744Z,18.03
2022-10-17T21:06:33.988Z,18.03
2022-10-17T21:09:01.541Z,18.02
2022-10-17T21:11:29.947Z,18.00
2022-10-17T21:13:59.439Z,17.97
2022-10-17T21:16:29.892Z,17.90
2022-10-17T21:18:58.148Z,17.90
2022-10-17T21:21:27.399Z,17.92
2022-10-17T21:23:56.400Z,17.96
2022-10-17T21:26:24.416Z,18.00
2022-10-17T21:28:52.129Z,17.97
2022-10-17T21:31:21.286Z,17.85
2022-10-17T21:33:51.733Z,17.87
2022-10-17T21:36:19.988Z,17.88
2022-10-17T21:38:48.679Z,17.86
2022-10-17T21:41:17.788Z,17.79
2022-10-17T21:43:47.380Z,17.74
2022-10-17T21:46:16.569Z,17.76
2022-10-17T21:48:44.661Z,17.78
2022-10-17T21:51:16.977Z,17.79
2022-10-17T21:53:45.112Z,17.79
2022-10-17T21:56:14.727Z,17.77
2022-10-17T21:58:42.772Z,17.81
2022-10-17T22:01:12.529Z,17.85
2022-10-17T22:03:47.803Z,17.89
2022-10-17T22:09:09.760Z,17.76
2022-10-17T22:11:37.550Z,17.73
2022-10-17T22:14:07.764Z,17.59
2022-10-17T22:16:35.740Z,17.66
2022-10-17T22:19:06.416Z,17.62
2022-10-17T22:21:38.922Z,17.57
2022-10-17T22:24:09.213Z,17.49
2022-10-17T22:26:38.017Z,17.52
2022-10-17T22:29:05.916Z,17.49
2022-10-17T22:31:33.725Z,17.50
2022-10-17T22:34:01.643Z,17.52
2022-10-17T22:36:30.113Z,17.49
2022-10-17T22:38:59.116Z,17.44
2022-10-17T22:41:27.242Z,17.30
2022-10-17T22:43:55.057Z,17.33
2022-10-17T22:46:23.016Z,17.33
2022-10-17T22:48:51.224Z,17.33
2022-10-17T22:51:19.646Z,17.30
2022-10-17T22:53:48.054Z,17.36
2022-10-17T22:56:21.956Z,17.35
2022-10-17T22:58:50.480Z,17.29
2022-10-17T23:01:21.185Z,17.36
2022-10-17T23:03:55.476Z,17.37
2022-10-17T23:06:24.043Z,17.31
2022-10-17T23:08:52.882Z,17.31
2022-10-17T23:11:22.748Z,17.27
2022-10-17T23:13:51.207Z,17.29
2022-10-17T23:16:19.641Z,17.30
2022-10-17T23:18:49.460Z,17.27
2022-10-17T23:21:17.794Z,17.25
2022-10-17T23:23:45.553Z,17.22
2022-10-17T23:26:19.989Z,17.17
2022-10-17T23:28:51.199Z,17.22
2022-10-17T23:31:20.785Z,17.23
2022-10-17T23:33:51.266Z,17.25
2022-10-17T23:36:21.796Z,17.27
2022-10-17T23:38:53.717Z,17.27
2022-10-17T23:41:24.653Z,17.20
2022-10-17T23:43:53.994Z,17.18
2022-10-17T23:46:22.006Z,17.22
2022-10-17T23:48:49.717Z,17.18
2022-10-17T23:51:17.522Z,17.13
2022-10-17T23:53:46.093Z,17.17
2022-10-17T23:56:13.796Z,17.19
2022-10-17T23:58:42.011Z,17.17
